Time;durP1;ratioP1;P1;durP2;ratioP2;P2;SDS_P1;SDS_P2;PMS_P1;PMS_P2;Temp;Humidity;BMP_temperature;BMP_pressure;BME280_temperature;BME280_humidity;BME280_pressure;Samples;Min_cycle;Max_cycle;Signal;HPM_P1;HPM_P2
2023/12/21 00:01:08;;;;;;;17.20;4.03;;;9.00;99.90;;;;;;5052608;28;20040;-81
2023/12/21 00:03:34;;;;;;;27.20;4.82;;;9.10;99.90;;;;;;5054288;28;20032;-81
2023/12/21 00:05:59;;;;;;;21.13;3.92;;;8.90;99.90;;;;;;5037852;28;20037;-80
2023/12/21 00:08:25;;;;;;;24.13;4.40;;;9.00;99.90;;;;;;5054684;28;20198;-80
2023/12/21 00:10:51;;;;;;;19.63;3.50;;;9.10;99.90;;;;;;5053898;28;20385;-80
2023/12/21 00:13:17;;;;;;;23.92;3.83;;;8.90;99.90;;;;;;5051400;28;20044;-81
2023/12/21 00:15:43;;;;;;;21.83;3.53;;;9.10;99.90;;;;;;5043094;28;20033;-80
2023/12/21 00:18:08;;;;;;;21.08;3.92;;;9.10;99.90;;;;;;5053809;28;20036;-81
2023/12/21 00:20:34;;;;;;;19.85;3.67;;;9.00;99.90;;;;;;5054650;28;20114;-80
2023/12/21 00:23:00;;;;;;;23.75;3.95;;;9.10;99.90;;;;;;5036131;28;20056;-80
2023/12/21 00:25:25;;;;;;;16.33;3.38;;;9.00;99.90;;;;;;5053897;28;20191;-81
2023/12/21 00:27:51;;;;;;;18.38;3.75;;;9.00;99.90;;;;;;5048732;28;20551;-80
2023/12/21 00:30:16;;;;;;;16.73;3.28;;;9.10;99.90;;;;;;5037310;28;20082;-80
2023/12/21 00:32:42;;;;;;;17.30;3.50;;;9.00;99.90;;;;;;5030823;28;20504;-80
2023/12/21 00:35:08;;;;;;;19.73;3.80;;;9.00;99.90;;;;;;5053545;28;20119;-80
2023/12/21 00:37:36;;;;;;;25.40;4.38;;;9.10;99.90;;;;;;5045045;28;20033;-80
2023/12/21 00:40:06;;;;;;;17.77;4.00;;;9.10;99.90;;;;;;5088637;28;20041;-81
2023/12/21 00:42:33;;;;;;;16.67;3.58;;;9.10;99.90;;;;;;5043601;28;20064;-80
2023/12/21 00:44:59;;;;;;;14.20;3.45;;;9.10;99.90;;;;;;5047151;28;20041;-80
2023/12/21 00:47:24;;;;;;;26.50;4.80;;;9.20;99.90;;;;;;5050742;28;20051;-80
2023/12/21 00:49:50;;;;;;;22.42;3.55;;;9.10;99.90;;;;;;5054623;28;20127;-80
2023/12/21 00:52:15;;;;;;;19.33;4.90;;;9.20;99.90;;;;;;5048117;28;20115;-79
2023/12/21 00:54:41;;;;;;;19.50;3.97;;;9.20;99.90;;;;;;5046905;28;20041;-80
2023/12/21 00:57:07;;;;;;;18.30;4.05;;;9.20;99.90;;;;;;5046704;28;20357;-80
2023/12/21 00:59:32;;;;;;;19.67;3.60;;;9.20;99.90;;;;;;5053361;28;20043;-80
2023/12/21 01:01:58;;;;;;;14.35;3.53;;;9.20;99.90;;;;;;5052149;28;20033;-80
2023/12/21 01:04:27;;;;;;;16.20;3.70;;;9.20;99.90;;;;;;5048358;28;20421;-80
2023/12/21 01:06:52;;;;;;;20.20;3.85;;;9.20;99.90;;;;;;5051907;28;20039;-80
2023/12/21 01:09:18;;;;;;;20.08;3.47;;;9.10;99.90;;;;;;5050248;28;20029;-80
2023/12/21 01:11:43;;;;;;;20.45;4.03;;;9.20;99.90;;;;;;5053026;28;20032;-80
2023/12/21 01:14:09;;;;;;;19.83;3.65;;;9.20;99.90;;;;;;5052746;28;20129;-81
2023/12/21 01:16:34;;;;;;;17.13;3.80;;;9.10;99.90;;;;;;5048067;28;20033;-80
2023/12/21 01:19:00;;;;;;;18.25;3.70;;;9.20;99.90;;;;;;5046320;28;20385;-80
2023/12/21 01:21:26;;;;;;;17.88;3.08;;;9.10;99.90;;;;;;5053655;28;20052;-80
2023/12/21 01:23:51;;;;;;;16.85;4.18;;;9.10;99.90;;;;;;5051285;28;20465;-81
2023/12/21 01:26:17;;;;;;;16.88;3.55;;;9.20;99.90;;;;;;5052883;28;20040;-80
2023/12/21 01:28:42;;;;;;;15.18;3.58;;;9.00;99.90;;;;;;5050785;28;20032;-80
2023/12/21 01:31:08;;;;;;;20.45;4.00;;;9.00;99.90;;;;;;5051366;28;20041;-80
2023/12/21 01:33:34;;;;;;;18.17;3.83;;;9.00;99.90;;;;;;5048704;28;20047;-81
2023/12/21 01:36:00;;;;;;;18.90;3.30;;;9.20;99.90;;;;;;5045882;28;20037;-80
2023/12/21 01:38:25;;;;;;;17.92;3.58;;;9.00;99.90;;;;;;5043537;28;20045;-81
2023/12/21 01:40:51;;;;;;;19.35;3.67;;;9.00;99.90;;;;;;5052266;28;20054;-81
2023/12/21 01:43:17;;;;;;;16.02;3.83;;;9.10;99.90;;;;;;5050445;28;20037;-80
2023/12/21 01:45:42;;;;;;;21.52;4.68;;;9.00;99.90;;;;;;5047142;28;20041;-81
2023/12/21 01:48:10;;;;;;;16.02;4.70;;;9.10;99.90;;;;;;5043588;28;20052;-80
2023/12/21 01:50:36;;;;;;;18.10;3.50;;;9.00;99.90;;;;;;5038474;28;20063;-81
2023/12/21 01:53:03;;;;;;;18.42;4.18;;;9.10;99.90;;;;;;5056658;28;20037;-80
2023/12/21 01:55:30;;;;;;;14.82;3.70;;;9.00;99.90;;;;;;5034586;28;20041;-80
2023/12/21 01:57:57;;;;;;;18.10;3.70;;;9.10;99.90;;;;;;5050773;28;20072;-80
2023/12/21 02:00:22;;;;;;;13.57;3.75;;;9.00;99.90;;;;;;5049799;28;20493;-81
2023/12/21 02:02:50;;;;;;;18.40;4.22;;;9.20;99.90;;;;;;5042330;28;20094;-80
2023/12/21 02:05:15;;;;;;;13.95;4.13;;;9.10;99.90;;;;;;5051069;28;20053;-81
2023/12/21 02:07:41;;;;;;;15.23;4.25;;;9.00;99.90;;;;;;5051156;28;20109;-80
2023/12/21 02:10:07;;;;;;;14.07;4.15;;;8.90;99.90;;;;;;5048800;28;20033;-81
2023/12/21 02:12:33;;;;;;;21.60;4.80;;;9.00;99.90;;;;;;5049266;28;20044;-81
2023/12/21 02:14:58;;;;;;;19.67;4.40;;;9.10;99.90;;;;;;5051542;28;20040;-80
2023/12/21 02:17:25;;;;;;;18.17;4.28;;;9.10;99.90;;;;;;5045694;28;20095;-80
2023/12/21 02:19:52;;;;;;;16.58;4.68;;;9.10;99.90;;;;;;5046249;28;20038;-80
2023/12/21 02:22:19;;;;;;;17.23;4.22;;;9.10;99.90;;;;;;5051020;28;20500;-81
2023/12/21 02:24:45;;;;;;;18.40;4.90;;;9.00;99.90;;;;;;5050638;28;20045;-80
2023/12/21 02:27:10;;;;;;;15.88;3.92;;;9.00;99.90;;;;;;5064084;28;20064;-81
2023/12/21 02:29:36;;;;;;;20.65;5.07;;;8.90;99.90;;;;;;5052047;28;20511;-81
2023/12/21 02:32:02;;;;;;;17.50;4.07;;;9.00;99.90;;;;;;5045345;28;20044;-81
2023/12/21 02:34:27;;;;;;;18.70;4.40;;;8.90;99.90;;;;;;5049579;28;20101;-80
2023/12/21 02:36:53;;;;;;;17.73;4.35;;;9.00;99.90;;;;;;5051521;28;20033;-80
2023/12/21 02:39:18;;;;;;;21.15;4.97;;;9.00;99.90;;;;;;5050092;28;20029;-82
2023/12/21 02:41:47;;;;;;;16.35;4.07;;;9.00;99.90;;;;;;5044959;28;20033;-80
2023/12/21 02:44:13;;;;;;;18.60;3.97;;;9.00;99.90;;;;;;5035185;28;20037;-82
2023/12/21 02:46:38;;;;;;;22.90;4.50;;;9.10;99.90;;;;;;5052145;28;20037;-80
2023/12/21 02:49:04;;;;;;;16.48;4.60;;;9.00;99.90;;;;;;5048622;28;20032;-80
2023/12/21 02:51:29;;;;;;;15.43;4.40;;;9.00;99.90;;;;;;5066960;28;20033;-81
2023/12/21 02:53:55;;;;;;;17.88;4.00;;;9.10;99.90;;;;;;5047127;28;20087;-81
2023/12/21 02:56:21;;;;;;;22.30;5.10;;;9.00;99.90;;;;;;5051375;28;20036;-81
2023/12/21 02:58:46;;;;;;;16.60;4.13;;;9.10;99.90;;;;;;5049868;28;20483;-80
2023/12/21 03:01:12;;;;;;;14.35;4.03;;;9.20;99.90;;;;;;5080486;28;20072;-80
2023/12/21 03:03:37;;;;;;;13.68;4.20;;;9.00;99.90;;;;;;5052828;28;20032;-80
2023/12/21 03:06:03;;;;;;;18.30;5.07;;;9.00;99.90;;;;;;5049061;28;20041;-81
2023/12/21 03:08:29;;;;;;;18.63;4.28;;;9.00;99.90;;;;;;5088918;28;20523;-80
2023/12/21 03:10:54;;;;;;;14.45;4.20;;;9.00;99.90;;;;;;5050809;28;20099;-80
2023/12/21 03:13:20;;;;;;;18.85;4.45;;;9.10;99.90;;;;;;5049914;28;20103;-81
2023/12/21 03:15:45;;;;;;;16.55;4.38;;;9.10;99.90;;;;;;5056739;28;20040;-81
2023/12/21 03:18:12;;;;;;;19.08;4.32;;;9.20;99.90;;;;;;5049650;28;20489;-82
2023/12/21 03:20:38;;;;;;;14.45;4.25;;;9.00;99.90;;;;;;5057670;28;20049;-81
2023/12/21 03:23:04;;;;;;;11.75;4.03;;;9.00;99.90;;;;;;5055234;28;20123;-81
2023/12/21 03:25:30;;;;;;;13.05;4.10;;;9.10;99.90;;;;;;5066115;28;20405;-81
2023/12/21 03:27:55;;;;;;;16.80;4.53;;;9.00;99.90;;;;;;5057565;28;20123;-81
2023/12/21 03:30:22;;;;;;;16.05;4.03;;;9.00;99.90;;;;;;5055320;28;20041;-80
2023/12/21 03:32:47;;;;;;;14.55;3.95;;;9.00;99.90;;;;;;5064777;28;20024;-81
2023/12/21 03:35:13;;;;;;;15.40;4.18;;;9.10;99.90;;;;;;5084112;28;20086;-80
2023/12/21 03:37:39;;;;;;;20.13;4.18;;;9.00;99.90;;;;;;5051633;28;20082;-80
2023/12/21 03:40:06;;;;;;;19.52;5.18;;;9.20;99.90;;;;;;5051209;28;20521;-80
2023/12/21 03:42:32;;;;;;;15.48;4.30;;;9.10;99.90;;;;;;5054547;28;20130;-80
2023/12/21 03:44:58;;;;;;;19.33;4.63;;;9.10;99.90;;;;;;5050912;28;20037;-82
2023/12/21 03:47:23;;;;;;;17.98;4.82;;;9.10;99.90;;;;;;5051372;28;20110;-80
2023/12/21 03:49:49;;;;;;;20.05;5.05;;;9.10;99.90;;;;;;5052635;28;20086;-83
2023/12/21 03:52:15;;;;;;;18.17;4.75;;;9.10;99.90;;;;;;5047494;28;20033;-80
2023/12/21 03:54:40;;;;;;;19.00;4.35;;;9.10;99.90;;;;;;5039211;28;20041;-80
2023/12/21 03:57:07;;;;;;;23.10;4.88;;;9.10;99.90;;;;;;5056092;28;20043;-81
2023/12/21 03:59:34;;;;;;;16.02;4.75;;;9.10;99.90;;;;;;5055200;28;20077;-81
2023/12/21 04:02:01;;;;;;;14.75;4.55;;;9.20;99.90;;;;;;5056325;28;20108;-81
2023/12/21 04:04:26;;;;;;;18.00;4.82;;;9.10;99.90;;;;;;5054130;28;20041;-80
2023/12/21 04:06:52;;;;;;;14.90;4.45;;;9.10;99.90;;;;;;5052431;28;20041;-81
2023/12/21 04:09:18;;;;;;;13.52;4.18;;;9.00;99.90;;;;;;5051650;28;20045;-81
2023/12/21 04:11:43;;;;;;;16.38;4.35;;;9.00;99.90;;;;;;5056004;28;20721;-81
2023/12/21 04:14:09;;;;;;;19.98;4.65;;;9.00;99.90;;;;;;5053879;28;20043;-80
2023/12/21 04:16:34;;;;;;;16.20;4.63;;;9.00;99.90;;;;;;5032209;28;20033;-80
2023/12/21 04:19:03;;;;;;;10.68;3.80;;;9.00;99.90;;;;;;5055219;28;20041;-81
2023/12/21 04:21:29;;;;;;;14.13;3.80;;;9.00;99.90;;;;;;5052065;28;20045;-80
2023/12/21 04:23:55;;;;;;;17.40;4.85;;;9.00;99.90;;;;;;5054606;28;20033;-81
2023/12/21 04:26:22;;;;;;;16.63;4.13;;;9.00;99.90;;;;;;5054531;28;20397;-80
2023/12/21 04:28:49;;;;;;;15.52;3.97;;;8.90;99.90;;;;;;5088842;28;20040;-81
2023/12/21 04:31:22;;;;;;;21.25;5.05;;;9.10;99.90;;;;;;5043043;28;20079;-80
2023/12/21 04:33:51;;;;;;;15.48;3.90;;;8.90;99.90;;;;;;5050194;28;20480;-82
2023/12/21 04:36:17;;;;;;;12.73;3.55;;;9.00;99.90;;;;;;5042841;28;20527;-80
2023/12/21 04:38:43;;;;;;;12.23;3.42;;;9.00;99.90;;;;;;5050580;28;20463;-80
2023/12/21 04:41:09;;;;;;;12.13;3.33;;;8.90;99.90;;;;;;5050522;28;20044;-81
2023/12/21 04:43:35;;;;;;;17.77;3.47;;;9.00;99.90;;;;;;5049825;28;20037;-81
2023/12/21 04:46:00;;;;;;;15.07;3.30;;;8.90;99.90;;;;;;5055110;28;20067;-80
2023/12/21 04:48:26;;;;;;;17.52;3.38;;;8.90;99.90;;;;;;5055091;28;20044;-81
2023/12/21 04:50:52;;;;;;;11.18;3.05;;;8.90;99.90;;;;;;5051483;28;20029;-81
2023/12/21 04:53:17;;;;;;;11.85;3.50;;;9.00;99.90;;;;;;5032786;28;20029;-81
2023/12/21 04:55:43;;;;;;;11.48;3.05;;;8.90;99.90;;;;;;5053546;28;20033;-80
2023/12/21 04:58:08;;;;;;;13.20;4.50;;;8.90;99.90;;;;;;5050773;28;20039;-80
2023/12/21 05:00:34;;;;;;;11.85;3.88;;;8.90;99.90;;;;;;5052324;28;20571;-80
2023/12/21 05:03:00;;;;;;;11.18;3.95;;;8.90;99.90;;;;;;5053244;28;20051;-81
2023/12/21 05:05:25;;;;;;;14.75;4.88;;;8.90;99.90;;;;;;5052298;28;20416;-81
2023/12/21 05:07:53;;;;;;;11.25;3.83;;;8.90;99.90;;;;;;5052671;28;20116;-80
2023/12/21 05:10:18;;;;;;;13.07;4.07;;;9.00;99.90;;;;;;5046460;28;20089;-81
2023/12/21 05:12:44;;;;;;;14.18;4.25;;;9.00;99.90;;;;;;5045625;28;20060;-81
2023/12/21 05:15:10;;;;;;;13.93;4.40;;;8.90;99.90;;;;;;5051393;28;20043;-80
2023/12/21 05:17:35;;;;;;;15.90;4.07;;;9.00;99.90;;;;;;5036604;28;20388;-81
2023/12/21 05:20:01;;;;;;;17.83;3.85;;;9.00;99.90;;;;;;5043462;28;20463;-81
2023/12/21 05:22:27;;;;;;;16.05;3.90;;;9.00;99.90;;;;;;5043419;28;20049;-80
2023/12/21 05:24:52;;;;;;;15.88;3.70;;;9.10;99.90;;;;;;5050444;28;20044;-80
2023/12/21 05:27:18;;;;;;;11.75;3.05;;;9.00;99.90;;;;;;5084782;28;20029;-80
2023/12/21 05:29:43;;;;;;;15.25;3.90;;;9.00;99.90;;;;;;5052318;28;20087;-82
2023/12/21 05:32:09;;;;;;;15.63;4.13;;;9.00;99.90;;;;;;5053770;28;20040;-81
2023/12/21 05:34:35;;;;;;;14.35;3.35;;;9.00;99.90;;;;;;5052909;28;20124;-81
2023/12/21 05:37:01;;;;;;;15.05;3.80;;;9.20;99.90;;;;;;5047935;28;20040;-81
2023/12/21 05:39:27;;;;;;;15.73;3.42;;;9.10;99.90;;;;;;5085708;28;20404;-80
2023/12/21 05:41:53;;;;;;;15.52;3.55;;;9.10;99.90;;;;;;5054065;28;20112;-81
2023/12/21 05:44:19;;;;;;;11.43;2.95;;;9.00;99.90;;;;;;5030484;28;20059;-80
2023/12/21 05:46:45;;;;;;;15.48;3.45;;;9.10;99.90;;;;;;5036530;28;20551;-80
2023/12/21 05:49:10;;;;;;;19.75;4.40;;;9.10;99.90;;;;;;5051993;28;20155;-80
2023/12/21 05:51:36;;;;;;;13.82;3.35;;;9.10;99.90;;;;;;5051146;28;20119;-80
2023/12/21 05:54:03;;;;;;;12.48;3.13;;;9.00;99.90;;;;;;5046894;28;20033;-80
2023/12/21 05:56:29;;;;;;;16.67;3.40;;;9.00;99.90;;;;;;5086512;28;20040;-80
2023/12/21 05:58:55;;;;;;;16.17;3.25;;;9.00;99.90;;;;;;5052280;28;20043;-81
2023/12/21 06:01:21;;;;;;;11.85;3.22;;;9.10;99.90;;;;;;5048879;28;20044;-80
2023/12/21 06:03:46;;;;;;;15.73;3.10;;;9.10;99.90;;;;;;5035337;28;20111;-80
2023/12/21 06:06:13;;;;;;;19.05;3.53;;;9.10;99.90;;;;;;5047948;28;20036;-81
2023/12/21 06:08:39;;;;;;;16.50;3.53;;;9.10;99.90;;;;;;5047171;28;20065;-80
2023/12/21 06:11:06;;;;;;;16.67;3.50;;;9.10;99.90;;;;;;5052800;28;20025;-81
2023/12/21 06:13:33;;;;;;;17.67;3.72;;;9.10;99.90;;;;;;5052008;28;20081;-81
2023/12/21 06:15:59;;;;;;;18.08;3.10;;;9.10;99.90;;;;;;5053087;28;20041;-80
2023/12/21 06:18:25;;;;;;;15.48;3.45;;;9.10;99.90;;;;;;5050462;28;20053;-81
2023/12/21 06:20:50;;;;;;;15.30;3.35;;;9.10;99.90;;;;;;5053618;28;20061;-80
2023/12/21 06:23:16;;;;;;;15.05;3.70;;;9.00;99.90;;;;;;5052580;28;20029;-80
2023/12/21 06:25:42;;;;;;;17.65;3.25;;;9.10;99.90;;;;;;5049969;28;20094;-80
2023/12/21 06:28:07;;;;;;;13.90;3.08;;;9.10;99.90;;;;;;5051420;28;20029;-81
2023/12/21 06:30:33;;;;;;;15.23;3.60;;;9.10;99.90;;;;;;5049414;28;20484;-80
2023/12/21 06:32:59;;;;;;;19.38;3.70;;;9.10;99.90;;;;;;5053872;28;20041;-80
2023/12/21 06:35:24;;;;;;;17.38;3.45;;;9.20;99.90;;;;;;5048694;28;20108;-80
2023/12/21 06:37:50;;;;;;;13.90;3.15;;;9.20;99.90;;;;;;5053839;28;20488;-80
2023/12/21 06:40:15;;;;;;;11.52;2.97;;;9.20;99.90;;;;;;5053108;28;20043;-80
2023/12/21 06:42:41;;;;;;;8.38;3.25;;;9.20;99.90;;;;;;5061015;28;20048;-80
2023/12/21 06:45:07;;;;;;;10.40;2.88;;;9.20;99.90;;;;;;5038381;28;20037;-80
2023/12/21 06:47:33;;;;;;;10.77;2.80;;;9.20;99.90;;;;;;5070733;28;20447;-80
2023/12/21 06:49:58;;;;;;;9.68;2.92;;;9.40;99.90;;;;;;5056645;28;20104;-80
2023/12/21 06:52:24;;;;;;;6.93;2.75;;;9.30;99.90;;;;;;5040008;28;20098;-80
2023/12/21 06:54:49;;;;;;;8.68;2.33;;;9.10;99.90;;;;;;5055033;28;20037;-80
2023/12/21 06:57:16;;;;;;;10.13;2.60;;;9.20;99.90;;;;;;5049988;28;20040;-80
2023/12/21 06:59:42;;;;;;;7.20;2.33;;;9.10;99.90;;;;;;5052716;28;20037;-81
2023/12/21 07:02:08;;;;;;;8.25;2.30;;;9.10;99.90;;;;;;5050978;28;20120;-80
2023/12/21 07:04:34;;;;;;;9.40;2.75;;;9.10;99.90;;;;;;5054470;28;20446;-80
2023/12/21 07:07:00;;;;;;;8.25;2.05;;;9.10;99.90;;;;;;5051277;28;20037;-80
2023/12/21 07:09:26;;;;;;;6.63;1.90;;;9.10;99.90;;;;;;5053328;28;20120;-80
2023/12/21 07:11:51;;;;;;;4.32;1.73;;;9.10;99.90;;;;;;5052231;28;20044;-81
2023/12/21 07:14:17;;;;;;;6.43;1.90;;;9.10;99.90;;;;;;5051358;28;20051;-80
2023/12/21 07:16:42;;;;;;;5.45;1.83;;;9.00;99.90;;;;;;5086336;28;20067;-80
2023/12/21 07:19:09;;;;;;;11.98;1.90;;;9.10;99.90;;;;;;5051587;28;20049;-80
2023/12/21 07:21:35;;;;;;;8.73;2.42;;;9.10;99.90;;;;;;5049460;28;20095;-80
2023/12/21 07:24:00;;;;;;;7.18;1.85;;;9.30;99.90;;;;;;5053309;28;20048;-80
2023/12/21 07:26:26;;;;;;;9.73;1.70;;;9.00;99.90;;;;;;5055956;28;20120;-81
2023/12/21 07:28:52;;;;;;;7.00;2.15;;;9.00;99.90;;;;;;5056286;28;20034;-81
2023/12/21 07:31:18;;;;;;;9.68;2.13;;;9.10;99.90;;;;;;5054061;28;20445;-81
2023/12/21 07:33:44;;;;;;;7.15;1.95;;;9.10;99.90;;;;;;5075655;28;20527;-80
2023/12/21 07:36:10;;;;;;;6.80;2.47;;;9.10;99.90;;;;;;5037369;28;20033;-81
2023/12/21 07:38:37;;;;;;;8.82;1.80;;;9.20;99.90;;;;;;5052992;28;20037;-80
2023/12/21 07:41:03;;;;;;;7.47;1.88;;;9.10;99.90;;;;;;5055434;28;20033;-80
2023/12/21 07:43:30;;;;;;;6.40;2.13;;;9.10;99.90;;;;;;5055950;28;20048;-80
2023/12/21 07:45:56;;;;;;;8.68;2.10;;;9.10;99.90;;;;;;5043331;28;20095;-81
2023/12/21 07:48:21;;;;;;;9.77;2.17;;;9.10;99.90;;;;;;5049415;28;20033;-81
2023/12/21 07:50:47;;;;;;;7.47;2.20;;;9.30;99.90;;;;;;5056530;28;20098;-82
2023/12/21 07:53:12;;;;;;;12.57;2.67;;;9.30;99.90;;;;;;5055255;28;20040;-80
2023/12/21 07:55:38;;;;;;;9.95;2.42;;;9.10;99.90;;;;;;5056684;28;20144;-80
2023/12/21 07:58:05;;;;;;;7.18;2.20;;;9.10;99.90;;;;;;5051468;28;20052;-80
2023/12/21 08:00:31;;;;;;;6.57;1.73;;;9.10;99.90;;;;;;5056037;28;20068;-80
2023/12/21 08:02:57;;;;;;;6.70;2.05;;;9.10;99.90;;;;;;5031936;28;20041;-80
2023/12/21 08:05:23;;;;;;;7.38;2.28;;;9.10;99.90;;;;;;5049370;28;20065;-80
2023/12/21 08:07:51;;;;;;;8.18;2.20;;;9.10;99.90;;;;;;5053568;28;20082;-81
2023/12/21 08:10:17;;;;;;;9.05;2.00;;;9.20;99.90;;;;;;5052157;28;20079;-81
2023/12/21 08:12:44;;;;;;;9.55;2.35;;;9.10;99.90;;;;;;5048208;28;20060;-82
2023/12/21 08:15:10;;;;;;;9.38;2.47;;;9.10;99.90;;;;;;5050813;28;20041;-81
2023/12/21 08:17:36;;;;;;;12.45;2.20;;;9.20;99.90;;;;;;5045606;28;20044;-80
2023/12/21 08:20:05;;;;;;;9.48;2.42;;;9.20;99.90;;;;;;5052885;28;20068;-80
2023/12/21 08:22:31;;;;;;;9.88;2.47;;;9.20;99.90;;;;;;5084671;28;20460;-81
2023/12/21 08:24:58;;;;;;;11.88;2.65;;;9.30;99.90;;;;;;5052557;28;20091;-81
2023/12/21 08:27:24;;;;;;;13.55;2.80;;;9.20;99.90;;;;;;5053131;28;20060;-81
2023/12/21 08:29:51;;;;;;;18.23;2.95;;;9.20;99.90;;;;;;5050827;28;20032;-81
2023/12/21 08:32:18;;;;;;;22.50;3.53;;;9.30;99.90;;;;;;5039815;28;20086;-81
2023/12/21 08:34:44;;;;;;;24.67;4.00;;;9.30;99.90;;;;;;5053467;28;20494;-80
2023/12/21 08:37:10;;;;;;;15.45;3.97;;;9.30;99.90;;;;;;5040117;28;20068;-81
2023/12/21 08:39:35;;;;;;;13.10;3.30;;;9.40;99.90;;;;;;5054496;28;20048;-81
2023/12/21 08:42:02;;;;;;;16.90;3.92;;;9.40;99.90;;;;;;5055729;28;20037;-81
2023/12/21 08:44:28;;;;;;;20.60;4.00;;;9.30;99.90;;;;;;5037249;28;20116;-81
2023/12/21 08:46:54;;;;;;;23.50;4.53;;;9.30;99.90;;;;;;5047982;28;20112;-82
2023/12/21 08:49:19;;;;;;;20.95;4.20;;;9.40;99.90;;;;;;5052529;28;20048;-81
2023/12/21 08:51:45;;;;;;;21.20;3.63;;;9.50;99.90;;;;;;5049409;28;20036;-82
2023/12/21 08:54:11;;;;;;;19.00;3.80;;;9.40;99.90;;;;;;5052888;28;20055;-82
2023/12/21 08:56:44;;;;;;;15.20;3.25;;;9.40;99.90;;;;;;5034560;28;20044;-81
2023/12/21 08:59:09;;;;;;;14.82;2.70;;;9.50;99.90;;;;;;5055031;28;20036;-82
2023/12/21 09:01:35;;;;;;;14.65;2.80;;;9.50;99.90;;;;;;5045704;28;20112;-81
2023/12/21 09:04:01;;;;;;;16.85;3.58;;;9.50;99.90;;;;;;5051880;28;20125;-81
2023/12/21 09:06:27;;;;;;;11.27;2.15;;;9.50;99.90;;;;;;5049885;28;20045;-82
2023/12/21 09:08:53;;;;;;;16.85;3.05;;;9.60;99.90;;;;;;5055407;28;20059;-81
2023/12/21 09:11:19;;;;;;;19.02;3.15;;;9.60;99.90;;;;;;5052907;28;20126;-81
2023/12/21 09:13:44;;;;;;;12.15;2.50;;;9.60;99.90;;;;;;5049947;28;20026;-82
2023/12/21 09:16:10;;;;;;;19.85;4.00;;;9.60;99.90;;;;;;5034392;28;20036;-82
2023/12/21 09:18:36;;;;;;;17.73;2.72;;;9.60;99.90;;;;;;5048745;28;20087;-82
2023/12/21 09:21:03;;;;;;;15.48;3.10;;;9.60;99.90;;;;;;5049159;28;20120;-83
2023/12/21 09:23:29;;;;;;;13.07;2.60;;;9.70;99.90;;;;;;5052005;28;20111;-82
2023/12/21 09:25:55;;;;;;;13.73;2.67;;;9.70;99.90;;;;;;5050430;28;20493;-81
2023/12/21 09:28:20;;;;;;;18.00;3.30;;;9.70;99.90;;;;;;5063363;28;20103;-81
2023/12/21 09:30:46;;;;;;;15.35;3.00;;;9.70;99.90;;;;;;5052399;28;20037;-82
2023/12/21 09:33:12;;;;;;;16.35;3.50;;;9.80;99.90;;;;;;5047379;28;20611;-83
2023/12/21 09:35:38;;;;;;;20.45;3.25;;;9.70;99.90;;;;;;5032823;28;20550;-83
2023/12/21 09:38:04;;;;;;;11.20;2.80;;;9.80;99.90;;;;;;5051960;28;20032;-82
2023/12/21 09:40:29;;;;;;;18.60;2.88;;;9.80;99.90;;;;;;5053867;28;20072;-82
2023/12/21 09:42:57;;;;;;;13.48;3.05;;;9.90;99.90;;;;;;5031055;28;20163;-83
2023/12/21 09:45:25;;;;;;;15.13;3.25;;;9.90;99.90;;;;;;5043509;28;20128;-82
2023/12/21 09:47:52;;;;;;;25.08;3.80;;;9.90;99.90;;;;;;5052803;28;20040;-81
2023/12/21 09:50:19;;;;;;;19.98;3.13;;;9.90;99.90;;;;;;5052707;28;20423;-82
2023/12/21 09:52:47;;;;;;;18.33;3.53;;;9.90;99.90;;;;;;5047730;28;20037;-81
2023/12/21 09:55:17;;;;;;;21.35;3.38;;;9.90;99.90;;;;;;5079148;28;20083;-82
2023/12/21 09:57:43;;;;;;;14.35;3.00;;;9.80;99.90;;;;;;5050028;28;20047;-83
2023/12/21 10:00:11;;;;;;;28.65;4.57;;;9.90;99.90;;;;;;5047693;28;20051;-80
2023/12/21 10:02:36;;;;;;;22.45;3.40;;;9.90;99.90;;;;;;5043389;28;20032;-79
2023/12/21 10:05:03;;;;;;;15.35;2.50;;;10.00;99.90;;;;;;5049727;28;20511;-80
2023/12/21 10:07:30;;;;;;;16.88;3.08;;;10.00;99.90;;;;;;5051818;28;20037;-80
2023/12/21 10:09:57;;;;;;;16.63;3.72;;;10.00;99.90;;;;;;5048981;28;20112;-80
2023/12/21 10:12:23;;;;;;;16.05;2.92;;;10.00;99.90;;;;;;5049330;28;20390;-81
2023/12/21 10:14:59;;;;;;;15.10;2.72;;;10.10;99.90;;;;;;5051230;28;20156;-80
2023/12/21 10:17:24;;;;;;;12.57;2.80;;;10.00;99.90;;;;;;5051726;28;20041;-81
2023/12/21 10:19:50;;;;;;;16.40;2.55;;;10.10;99.90;;;;;;5043247;28;20050;-81
2023/12/21 10:22:17;;;;;;;12.75;4.07;;;10.20;99.90;;;;;;5045625;28;20037;-79
2023/12/21 10:24:42;;;;;;;12.60;3.03;;;10.30;99.90;;;;;;5044323;28;20124;-80
2023/12/21 10:27:13;;;;;;;13.73;2.45;;;10.30;99.90;;;;;;5028420;28;20135;-80
2023/12/21 10:29:39;;;;;;;18.67;2.80;;;10.30;99.90;;;;;;5048451;28;20060;-80
2023/12/21 10:32:05;;;;;;;17.73;3.28;;;10.20;99.90;;;;;;5043791;28;20033;-80
2023/12/21 10:34:31;;;;;;;15.43;2.65;;;10.20;99.90;;;;;;5045754;28;20396;-81
2023/12/21 10:37:00;;;;;;;12.80;2.50;;;10.10;99.90;;;;;;5049070;28;20561;-80
2023/12/21 10:39:27;;;;;;;13.85;2.63;;;10.30;99.90;;;;;;5043494;28;20052;-82
2023/12/21 10:41:56;;;;;;;13.88;2.55;;;10.40;99.90;;;;;;5047974;28;20073;-81
2023/12/21 10:44:22;;;;;;;14.35;2.72;;;10.30;99.90;;;;;;5080385;28;20060;-80
2023/12/21 10:46:48;;;;;;;17.50;3.00;;;10.40;99.90;;;;;;5051809;28;20029;-81
2023/12/21 10:49:15;;;;;;;15.95;2.60;;;10.40;99.90;;;;;;5053520;28;20025;-81
2023/12/21 10:51:43;;;;;;;13.57;2.92;;;10.50;99.90;;;;;;5043227;28;20407;-80
2023/12/21 10:54:11;;;;;;;16.77;2.40;;;10.40;99.90;;;;;;5052668;28;20032;-81
2023/12/21 10:56:44;;;;;;;20.33;2.75;;;10.40;99.90;;;;;;5050989;28;20080;-80
2023/12/21 10:59:12;;;;;;;11.43;2.50;;;10.30;99.90;;;;;;5031818;28;20036;-82
2023/12/21 11:01:39;;;;;;;15.25;2.33;;;10.30;99.90;;;;;;5051380;28;20045;-80
2023/12/21 11:04:06;;;;;;;14.05;2.50;;;10.30;99.90;;;;;;5047049;28;20084;-82
2023/12/21 11:06:33;;;;;;;12.88;2.53;;;10.20;99.90;;;;;;5033765;28;20500;-81
2023/12/21 11:09:01;;;;;;;14.40;2.67;;;10.20;99.90;;;;;;5051374;28;20037;-79
2023/12/21 11:11:27;;;;;;;14.30;2.92;;;10.20;99.90;;;;;;5049967;28;20071;-79
2023/12/21 11:13:55;;;;;;;13.82;2.42;;;10.30;99.90;;;;;;5051016;28;20037;-80
2023/12/21 11:16:34;;;;;;;18.73;2.75;;;10.30;99.90;;;;;;5050181;28;20041;-81
2023/12/21 11:19:02;;;;;;;17.85;3.17;;;10.30;99.90;;;;;;5049480;28;20079;-80
2023/12/21 11:21:29;;;;;;;17.20;3.10;;;10.40;99.90;;;;;;5049682;28;20048;-79
2023/12/21 11:23:56;;;;;;;19.77;3.35;;;10.40;99.90;;;;;;5071666;28;20072;-79
2023/12/21 11:26:27;;;;;;;17.83;2.95;;;10.40;99.90;;;;;;5081994;28;20037;-79
2023/12/21 11:29:07;;;;;;;19.00;3.22;;;10.40;99.90;;;;;;5053738;28;20408;-78
2023/12/21 11:31:41;;;;;;;15.05;2.75;;;10.60;99.90;;;;;;5054062;28;20125;-79
2023/12/21 11:34:14;;;;;;;15.57;3.13;;;10.50;99.90;;;;;;5051855;28;20033;-79
2023/12/21 11:36:41;;;;;;;15.70;3.03;;;10.40;99.90;;;;;;5036868;28;20081;-81
2023/12/21 11:39:12;;;;;;;19.13;3.47;;;10.40;99.90;;;;;;5081752;28;20041;-79
2023/12/21 11:41:57;;;;;;;17.42;3.65;;;10.50;99.90;;;;;;5050692;28;20067;-79
2023/12/21 11:44:24;;;;;;;12.98;2.90;;;10.40;99.90;;;;;;5029978;28;20064;-79
2023/12/21 11:46:57;;;;;;;23.45;2.97;;;10.50;99.90;;;;;;5081465;28;20116;-79
2023/12/21 11:49:23;;;;;;;17.45;3.90;;;10.80;99.90;;;;;;5087772;28;20063;-78
2023/12/21 11:51:50;;;;;;;17.95;3.22;;;10.90;99.90;;;;;;5038650;28;20451;-80
2023/12/21 11:54:21;;;;;;;18.60;2.75;;;10.90;99.90;;;;;;5053690;28;20120;-78
2023/12/21 11:56:47;;;;;;;17.05;3.50;;;10.90;99.90;;;;;;5054601;28;20044;-80
2023/12/21 11:59:14;;;;;;;11.82;2.22;;;10.90;99.90;;;;;;5054949;28;20037;-84
2023/12/21 12:01:40;;;;;;;15.60;2.90;;;11.00;99.90;;;;;;5053977;28;20515;-80
2023/12/21 12:04:12;;;;;;;20.98;4.05;;;11.10;99.90;;;;;;5053896;28;20057;-79
2023/12/21 12:06:38;;;;;;;21.15;3.92;;;11.10;99.90;;;;;;5036631;28;20033;-78
2023/12/21 12:09:04;;;;;;;17.80;3.05;;;11.00;99.90;;;;;;5054078;28;20040;-80
2023/12/21 12:11:29;;;;;;;21.23;3.10;;;11.00;99.90;;;;;;5036718;28;20061;-78
2023/12/21 12:13:58;;;;;;;24.23;4.40;;;11.10;99.90;;;;;;5048493;28;20045;-80
2023/12/21 12:16:24;;;;;;;18.23;4.53;;;11.10;99.90;;;;;;5045011;28;20123;-79
2023/12/21 12:18:49;;;;;;;15.10;3.08;;;11.00;99.90;;;;;;5049282;28;20437;-83
2023/12/21 12:21:16;;;;;;;21.10;3.42;;;11.10;99.90;;;;;;5048939;28;20068;-81
2023/12/21 12:23:46;;;;;;;24.25;3.60;;;11.10;99.90;;;;;;5052674;28;20561;-78
2023/12/21 12:26:14;;;;;;;17.77;2.92;;;11.10;99.90;;;;;;5042978;28;20068;-79
2023/12/21 12:28:40;;;;;;;23.40;3.83;;;11.10;99.90;;;;;;5042105;28;20063;-79
2023/12/21 12:31:06;;;;;;;19.52;3.30;;;11.10;99.90;;;;;;5036230;28;20033;-79
2023/12/21 12:33:33;;;;;;;19.30;3.28;;;11.10;99.90;;;;;;5050192;28;20412;-78
2023/12/21 12:36:03;;;;;;;16.58;3.05;;;11.20;99.90;;;;;;5051195;28;20059;-80
2023/12/21 12:38:29;;;;;;;21.27;3.50;;;11.10;99.90;;;;;;5043677;28;20105;-79
2023/12/21 12:40:59;;;;;;;18.42;2.97;;;11.20;99.90;;;;;;5051010;28;20047;-79